sensor_id;sensor_type;location;lat;lon;timestamp;P1;durP1;ratioP1;P2;durP2;ratioP2
72127;SDS011;60000;51.030;7.024;2022-11-20T00:01:31;14.02;;;5.72;;
72127;SDS011;60000;51.030;7.024;2022-11-20T00:03:57;12.57;;;5.30;;
72127;SDS011;60000;51.030;7.024;2022-11-20T00:06:23;12.60;;;5.45;;
72127;SDS011;60000;51.030;7.024;2022-11-20T00:08:49;11.93;;;5.45;;
72127;SDS011;60000;51.030;7.024;2022-11-20T00:11:16;14.20;;;4.73;;
72127;SDS011;60000;51.030;7.024;2022-11-20T00:13:43;12.40;;;5.38;;
72127;SDS011;60000;51.030;7.024;2022-11-20T00:16:10;14.25;;;6.00;;
72127;SDS011;60000;51.030;7.024;2022-11-20T00:18:36;14.45;;;5.97;;
72127;SDS011;60000;51.030;7.024;2022-11-20T00:23:41;12.30;;;5.35;;
72127;SDS011;60000;51.030;7.024;2022-11-20T00:26:08;13.00;;;4.95;;
72127;SDS011;60000;51.030;7.024;2022-11-20T00:28:34;13.97;;;5.30;;
72127;SDS011;60000;51.030;7.024;2022-11-20T00:31:04;12.77;;;4.97;;
72127;SDS011;60000;51.030;7.024;2022-11-20T00:33:31;11.95;;;4.75;;
72127;SDS011;60000;51.030;7.024;2022-11-20T00:36:03;11.23;;;5.15;;
72127;SDS011;60000;51.030;7.024;2022-11-20T00:38:36;13.20;;;5.00;;
72127;SDS011;60000;51.030;7.024;2022-11-20T00:41:02;12.27;;;5.00;;
72127;SDS011;60000;51.030;7.024;2022-11-20T00:43:30;11.20;;;4.55;;
72127;SDS011;60000;51.030;7.024;2022-11-20T00:45:59;13.43;;;5.10;;
72127;SDS011;60000;51.030;7.024;2022-11-20T00:48:29;12.50;;;5.32;;
72127;SDS011;60000;51.030;7.024;2022-11-20T00:50:54;12.03;;;4.97;;
72127;SDS011;60000;51.030;7.024;2022-11-20T00:53:20;12.10;;;5.00;;
72127;SDS011;60000;51.030;7.024;2022-11-20T00:55:55;12.13;;;5.07;;
72127;SDS011;60000;51.030;7.024;2022-11-20T00:58:25;13.15;;;4.90;;
72127;SDS011;60000;51.030;7.024;2022-11-20T01:01:06;11.10;;;4.72;;
72127;SDS011;60000;51.030;7.024;2022-11-20T01:03:37;13.80;;;5.32;;
72127;SDS011;60000;51.030;7.024;2022-11-20T01:06:07;12.32;;;5.32;;
72127;SDS011;60000;51.030;7.024;2022-11-20T01:08:37;12.67;;;4.83;;
72127;SDS011;60000;51.030;7.024;2022-11-20T01:11:04;13.05;;;5.15;;
72127;SDS011;60000;51.030;7.024;2022-11-20T01:13:33;13.38;;;5.07;;
72127;SDS011;60000;51.030;7.024;2022-11-20T01:16:27;11.88;;;4.80;;
72127;SDS011;60000;51.030;7.024;2022-11-20T01:19:00;12.33;;;4.63;;
72127;SDS011;60000;51.030;7.024;2022-11-20T01:21:29;14.45;;;5.10;;
72127;SDS011;60000;51.030;7.024;2022-11-20T01:24:02;14.32;;;5.30;;
72127;SDS011;60000;51.030;7.024;2022-11-20T01:26:30;12.18;;;5.60;;
72127;SDS011;60000;51.030;7.024;2022-11-20T01:28:57;12.15;;;4.43;;
72127;SDS011;60000;51.030;7.024;2022-11-20T01:33:50;10.20;;;4.50;;
72127;SDS011;60000;51.030;7.024;2022-11-20T01:36:18;11.48;;;5.20;;
72127;SDS011;60000;51.030;7.024;2022-11-20T01:38:46;15.27;;;5.18;;
72127;SDS011;60000;51.030;7.024;2022-11-20T01:41:12;12.90;;;5.00;;
72127;SDS011;60000;51.030;7.024;2022-11-20T01:44:02;12.25;;;4.78;;
72127;SDS011;60000;51.030;7.024;2022-11-20T01:46:29;11.95;;;4.90;;
72127;SDS011;60000;51.030;7.024;2022-11-20T01:51:56;11.40;;;4.72;;
72127;SDS011;60000;51.030;7.024;2022-11-20T01:54:35;14.00;;;5.27;;
72127;SDS011;60000;51.030;7.024;2022-11-20T01:57:02;14.38;;;5.25;;
72127;SDS011;60000;51.030;7.024;2022-11-20T01:59:30;12.52;;;5.43;;
72127;SDS011;60000;51.030;7.024;2022-11-20T02:01:56;12.97;;;5.03;;
72127;SDS011;60000;51.030;7.024;2022-11-20T02:04:22;10.00;;;4.20;;
72127;SDS011;60000;51.030;7.024;2022-11-20T02:06:49;11.63;;;4.73;;
72127;SDS011;60000;51.030;7.024;2022-11-20T02:09:18;11.00;;;4.82;;
72127;SDS011;60000;51.030;7.024;2022-11-20T02:11:44;11.77;;;5.10;;
72127;SDS011;60000;51.030;7.024;2022-11-20T02:14:12;12.90;;;5.15;;
72127;SDS011;60000;51.030;7.024;2022-11-20T02:16:39;13.93;;;6.00;;
72127;SDS011;60000;51.030;7.024;2022-11-20T02:19:09;15.82;;;5.10;;
72127;SDS011;60000;51.030;7.024;2022-11-20T02:24:42;11.67;;;4.63;;
72127;SDS011;60000;51.030;7.024;2022-11-20T02:27:11;11.60;;;4.25;;
72127;SDS011;60000;51.030;7.024;2022-11-20T02:29:39;11.13;;;4.93;;
72127;SDS011;60000;51.030;7.024;2022-11-20T02:32:25;12.93;;;4.57;;
72127;SDS011;60000;51.030;7.024;2022-11-20T02:34:52;11.07;;;4.30;;
72127;SDS011;60000;51.030;7.024;2022-11-20T02:37:18;11.40;;;5.50;;
72127;SDS011;60000;51.030;7.024;2022-11-20T02:39:45;11.82;;;4.80;;
72127;SDS011;60000;51.030;7.024;2022-11-20T02:42:12;13.05;;;4.68;;
72127;SDS011;60000;51.030;7.024;2022-11-20T02:44:37;13.53;;;5.33;;
72127;SDS011;60000;51.030;7.024;2022-11-20T02:47:03;13.67;;;5.30;;
72127;SDS011;60000;51.030;7.024;2022-11-20T02:49:28;11.13;;;4.80;;
72127;SDS011;60000;51.030;7.024;2022-11-20T02:51:53;11.70;;;4.80;;
72127;SDS011;60000;51.030;7.024;2022-11-20T02:54:19;14.65;;;4.57;;
72127;SDS011;60000;51.030;7.024;2022-11-20T02:56:44;12.13;;;4.90;;
72127;SDS011;60000;51.030;7.024;2022-11-20T02:59:09;10.50;;;4.10;;
72127;SDS011;60000;51.030;7.024;2022-11-20T03:01:35;13.67;;;5.37;;
72127;SDS011;60000;51.030;7.024;2022-11-20T03:04:00;10.90;;;4.63;;
72127;SDS011;60000;51.030;7.024;2022-11-20T03:06:26;12.38;;;5.15;;
72127;SDS011;60000;51.030;7.024;2022-11-20T03:08:51;9.40;;;4.03;;
72127;SDS011;60000;51.030;7.024;2022-11-20T03:11:17;13.87;;;4.77;;
72127;SDS011;60000;51.030;7.024;2022-11-20T03:13:42;12.27;;;5.13;;
72127;SDS011;60000;51.030;7.024;2022-11-20T03:16:08;12.27;;;4.73;;
72127;SDS011;60000;51.030;7.024;2022-11-20T03:18:36;12.13;;;4.70;;
72127;SDS011;60000;51.030;7.024;2022-11-20T03:21:02;11.43;;;5.03;;
72127;SDS011;60000;51.030;7.024;2022-11-20T03:23:28;14.82;;;5.43;;
72127;SDS011;60000;51.030;7.024;2022-11-20T03:25:55;13.18;;;4.80;;
72127;SDS011;60000;51.030;7.024;2022-11-20T03:28:21;11.13;;;4.87;;
72127;SDS011;60000;51.030;7.024;2022-11-20T03:30:46;12.75;;;4.60;;
72127;SDS011;60000;51.030;7.024;2022-11-20T03:33:11;10.70;;;4.72;;
72127;SDS011;60000;51.030;7.024;2022-11-20T03:35:36;12.98;;;4.80;;
72127;SDS011;60000;51.030;7.024;2022-11-20T03:38:02;13.70;;;5.53;;
72127;SDS011;60000;51.030;7.024;2022-11-20T03:40:27;14.47;;;5.20;;
72127;SDS011;60000;51.030;7.024;2022-11-20T03:42:52;12.60;;;5.40;;
72127;SDS011;60000;51.030;7.024;2022-11-20T03:45:18;14.20;;;4.77;;
72127;SDS011;60000;51.030;7.024;2022-11-20T03:47:43;14.47;;;5.13;;
72127;SDS011;60000;51.030;7.024;2022-11-20T03:50:10;13.55;;;5.72;;
72127;SDS011;60000;51.030;7.024;2022-11-20T03:52:40;11.40;;;4.55;;
72127;SDS011;60000;51.030;7.024;2022-11-20T03:55:06;14.23;;;5.68;;
72127;SDS011;60000;51.030;7.024;2022-11-20T03:57:32;12.83;;;4.50;;
72127;SDS011;60000;51.030;7.024;2022-11-20T03:59:57;12.23;;;5.20;;
72127;SDS011;60000;51.030;7.024;2022-11-20T04:02:23;12.77;;;4.77;;
72127;SDS011;60000;51.030;7.024;2022-11-20T04:04:48;11.30;;;4.53;;
72127;SDS011;60000;51.030;7.024;2022-11-20T04:07:13;11.90;;;4.83;;
72127;SDS011;60000;51.030;7.024;2022-11-20T04:09:39;13.80;;;5.30;;
72127;SDS011;60000;51.030;7.024;2022-11-20T04:12:04;12.27;;;5.30;;
72127;SDS011;60000;51.030;7.024;2022-11-20T04:14:29;12.40;;;5.07;;
72127;SDS011;60000;51.030;7.024;2022-11-20T04:16:55;11.63;;;4.97;;
72127;SDS011;60000;51.030;7.024;2022-11-20T04:19:20;10.80;;;4.47;;
72127;SDS011;60000;51.030;7.024;2022-11-20T04:21:45;12.55;;;4.47;;
72127;SDS011;60000;51.030;7.024;2022-11-20T04:24:11;11.27;;;4.40;;
72127;SDS011;60000;51.030;7.024;2022-11-20T04:26:36;14.87;;;5.40;;
72127;SDS011;60000;51.030;7.024;2022-11-20T04:29:02;11.63;;;4.72;;
72127;SDS011;60000;51.030;7.024;2022-11-20T04:31:30;12.27;;;5.17;;
72127;SDS011;60000;51.030;7.024;2022-11-20T04:34:01;13.02;;;5.60;;
72127;SDS011;60000;51.030;7.024;2022-11-20T04:36:28;12.63;;;4.53;;
72127;SDS011;60000;51.030;7.024;2022-11-20T04:38:55;11.67;;;4.87;;
72127;SDS011;60000;51.030;7.024;2022-11-20T04:41:23;9.60;;;4.15;;
72127;SDS011;60000;51.030;7.024;2022-11-20T04:43:51;11.68;;;5.07;;
72127;SDS011;60000;51.030;7.024;2022-11-20T04:46:18;13.70;;;5.05;;
72127;SDS011;60000;51.030;7.024;2022-11-20T04:48:45;13.07;;;5.13;;
72127;SDS011;60000;51.030;7.024;2022-11-20T04:51:11;11.80;;;4.67;;
72127;SDS011;60000;51.030;7.024;2022-11-20T04:53:37;13.10;;;4.72;;
72127;SDS011;60000;51.030;7.024;2022-11-20T04:56:03;13.52;;;5.45;;
72127;SDS011;60000;51.030;7.024;2022-11-20T04:58:30;12.63;;;5.18;;
72127;SDS011;60000;51.030;7.024;2022-11-20T05:01:03;11.05;;;4.47;;
72127;SDS011;60000;51.030;7.024;2022-11-20T05:03:33;12.05;;;4.70;;
72127;SDS011;60000;51.030;7.024;2022-11-20T05:06:02;12.20;;;4.73;;
72127;SDS011;60000;51.030;7.024;2022-11-20T05:08:29;12.68;;;4.80;;
72127;SDS011;60000;51.030;7.024;2022-11-20T05:10:59;11.07;;;4.67;;
72127;SDS011;60000;51.030;7.024;2022-11-20T05:13:28;16.02;;;5.32;;
72127;SDS011;60000;51.030;7.024;2022-11-20T05:15:54;12.15;;;4.68;;
72127;SDS011;60000;51.030;7.024;2022-11-20T05:18:19;12.30;;;4.70;;
72127;SDS011;60000;51.030;7.024;2022-11-20T05:20:44;12.63;;;4.83;;
72127;SDS011;60000;51.030;7.024;2022-11-20T05:23:10;16.87;;;5.50;;
72127;SDS011;60000;51.030;7.024;2022-11-20T05:25:35;11.83;;;4.73;;
72127;SDS011;60000;51.030;7.024;2022-11-20T05:28:00;13.70;;;5.83;;
72127;SDS011;60000;51.030;7.024;2022-11-20T05:30:25;12.40;;;5.00;;
72127;SDS011;60000;51.030;7.024;2022-11-20T05:32:51;13.33;;;5.50;;
72127;SDS011;60000;51.030;7.024;2022-11-20T05:35:16;11.80;;;4.97;;
72127;SDS011;60000;51.030;7.024;2022-11-20T05:37:41;14.03;;;5.10;;
72127;SDS011;60000;51.030;7.024;2022-11-20T05:40:07;12.57;;;4.82;;
72127;SDS011;60000;51.030;7.024;2022-11-20T05:42:33;14.40;;;5.40;;
72127;SDS011;60000;51.030;7.024;2022-11-20T05:44:58;13.10;;;5.27;;
72127;SDS011;60000;51.030;7.024;2022-11-20T05:47:25;14.65;;;5.13;;
72127;SDS011;60000;51.030;7.024;2022-11-20T05:49:52;12.30;;;5.78;;
72127;SDS011;60000;51.030;7.024;2022-11-20T05:52:17;13.07;;;5.17;;
72127;SDS011;60000;51.030;7.024;2022-11-20T05:54:43;13.13;;;4.87;;
72127;SDS011;60000;51.030;7.024;2022-11-20T05:57:08;13.47;;;5.13;;
72127;SDS011;60000;51.030;7.024;2022-11-20T05:59:33;13.20;;;5.57;;
72127;SDS011;60000;51.030;7.024;2022-11-20T06:01:59;12.60;;;4.77;;
72127;SDS011;60000;51.030;7.024;2022-11-20T06:04:24;12.57;;;5.10;;
72127;SDS011;60000;51.030;7.024;2022-11-20T06:06:49;13.60;;;5.00;;
72127;SDS011;60000;51.030;7.024;2022-11-20T06:09:15;13.67;;;5.70;;
72127;SDS011;60000;51.030;7.024;2022-11-20T06:11:40;12.60;;;4.77;;
72127;SDS011;60000;51.030;7.024;2022-11-20T06:14:05;12.33;;;5.50;;
72127;SDS011;60000;51.030;7.024;2022-11-20T06:16:31;14.90;;;5.80;;
72127;SDS011;60000;51.030;7.024;2022-11-20T06:18:56;13.50;;;5.27;;
72127;SDS011;60000;51.030;7.024;2022-11-20T06:21:21;13.53;;;5.50;;
72127;SDS011;60000;51.030;7.024;2022-11-20T06:23:48;15.57;;;4.88;;
72127;SDS011;60000;51.030;7.024;2022-11-20T06:26:18;14.52;;;5.35;;
72127;SDS011;60000;51.030;7.024;2022-11-20T06:28:46;16.40;;;4.82;;
72127;SDS011;60000;51.030;7.024;2022-11-20T06:31:13;13.03;;;4.97;;
72127;SDS011;60000;51.030;7.024;2022-11-20T06:33:39;12.88;;;4.95;;
72127;SDS011;60000;51.030;7.024;2022-11-20T06:36:05;13.23;;;5.68;;
72127;SDS011;60000;51.030;7.024;2022-11-20T06:38:30;12.67;;;4.80;;
72127;SDS011;60000;51.030;7.024;2022-11-20T06:40:56;14.73;;;5.40;;
72127;SDS011;60000;51.030;7.024;2022-11-20T06:43:22;11.98;;;4.47;;
72127;SDS011;60000;51.030;7.024;2022-11-20T06:45:54;14.95;;;5.30;;
72127;SDS011;60000;51.030;7.024;2022-11-20T06:48:20;13.65;;;5.68;;
72127;SDS011;60000;51.030;7.024;2022-11-20T06:50:46;15.55;;;5.60;;
72127;SDS011;60000;51.030;7.024;2022-11-20T06:53:11;12.80;;;4.97;;
72127;SDS011;60000;51.030;7.024;2022-11-20T06:55:37;14.83;;;5.70;;
72127;SDS011;60000;51.030;7.024;2022-11-20T06:58:07;14.02;;;5.22;;
72127;SDS011;60000;51.030;7.024;2022-11-20T07:00:32;14.90;;;5.77;;
72127;SDS011;60000;51.030;7.024;2022-11-20T07:02:57;14.57;;;5.17;;
72127;SDS011;60000;51.030;7.024;2022-11-20T07:05:23;14.23;;;5.80;;
72127;SDS011;60000;51.030;7.024;2022-11-20T07:07:48;14.47;;;5.07;;
72127;SDS011;60000;51.030;7.024;2022-11-20T07:10:13;13.10;;;5.73;;
72127;SDS011;60000;51.030;7.024;2022-11-20T07:12:38;13.33;;;5.17;;
72127;SDS011;60000;51.030;7.024;2022-11-20T07:15:04;15.53;;;5.70;;
72127;SDS011;60000;51.030;7.024;2022-11-20T07:17:30;11.10;;;5.07;;
72127;SDS011;60000;51.030;7.024;2022-11-20T07:19:55;16.30;;;6.07;;
72127;SDS011;60000;51.030;7.024;2022-11-20T07:22:20;13.30;;;5.32;;
72127;SDS011;60000;51.030;7.024;2022-11-20T07:24:46;13.00;;;5.50;;
72127;SDS011;60000;51.030;7.024;2022-11-20T07:27:12;14.93;;;5.82;;
72127;SDS011;60000;51.030;7.024;2022-11-20T07:29:37;15.20;;;5.57;;
72127;SDS011;60000;51.030;7.024;2022-11-20T07:32:03;15.70;;;5.47;;
72127;SDS011;60000;51.030;7.024;2022-11-20T07:34:29;13.65;;;5.45;;
72127;SDS011;60000;51.030;7.024;2022-11-20T07:36:54;15.13;;;5.27;;
72127;SDS011;60000;51.030;7.024;2022-11-20T07:39:19;15.87;;;5.80;;
72127;SDS011;60000;51.030;7.024;2022-11-20T07:41:45;13.27;;;4.97;;
72127;SDS011;60000;51.030;7.024;2022-11-20T07:44:10;15.27;;;5.90;;
72127;SDS011;60000;51.030;7.024;2022-11-20T07:46:35;14.73;;;5.10;;
72127;SDS011;60000;51.030;7.024;2022-11-20T07:49:01;14.75;;;5.60;;
72127;SDS011;60000;51.030;7.024;2022-11-20T07:51:26;14.50;;;5.83;;
72127;SDS011;60000;51.030;7.024;2022-11-20T07:53:52;14.33;;;5.63;;
72127;SDS011;60000;51.030;7.024;2022-11-20T07:56:18;14.73;;;5.75;;
72127;SDS011;60000;51.030;7.024;2022-11-20T07:58:43;16.23;;;6.07;;
72127;SDS011;60000;51.030;7.024;2022-11-20T08:01:08;17.77;;;6.50;;
72127;SDS011;60000;51.030;7.024;2022-11-20T08:03:34;17.67;;;6.80;;
72127;SDS011;60000;51.030;7.024;2022-11-20T08:06:02;14.60;;;6.53;;
72127;SDS011;60000;51.030;7.024;2022-11-20T08:08:28;17.10;;;6.10;;
72127;SDS011;60000;51.030;7.024;2022-11-20T08:10:54;14.85;;;6.10;;
72127;SDS011;60000;51.030;7.024;2022-11-20T08:13:39;19.55;;;6.28;;
72127;SDS011;60000;51.030;7.024;2022-11-20T08:16:23;18.95;;;6.60;;
72127;SDS011;60000;51.030;7.024;2022-11-20T08:18:48;15.43;;;5.97;;
72127;SDS011;60000;51.030;7.024;2022-11-20T08:21:14;15.70;;;6.67;;
72127;SDS011;60000;51.030;7.024;2022-11-20T08:23:40;16.58;;;6.97;;
72127;SDS011;60000;51.030;7.024;2022-11-20T08:26:05;16.87;;;6.57;;
72127;SDS011;60000;51.030;7.024;2022-11-20T08:28:30;15.00;;;5.80;;
72127;SDS011;60000;51.030;7.024;2022-11-20T08:30:59;17.63;;;6.37;;
72127;SDS011;60000;51.030;7.024;2022-11-20T08:33:25;14.93;;;6.38;;
72127;SDS011;60000;51.030;7.024;2022-11-20T08:35:51;15.20;;;6.10;;
72127;SDS011;60000;51.030;7.024;2022-11-20T08:38:17;12.77;;;5.80;;
72127;SDS011;60000;51.030;7.024;2022-11-20T08:40:43;12.10;;;5.77;;
72127;SDS011;60000;51.030;7.024;2022-11-20T08:43:31;14.75;;;5.53;;
72127;SDS011;60000;51.030;7.024;2022-11-20T08:45:56;13.90;;;5.70;;
72127;SDS011;60000;51.030;7.024;2022-11-20T08:48:22;15.60;;;5.35;;
72127;SDS011;60000;51.030;7.024;2022-11-20T08:50:47;13.77;;;5.90;;
72127;SDS011;60000;51.030;7.024;2022-11-20T08:53:13;12.97;;;5.20;;
72127;SDS011;60000;51.030;7.024;2022-11-20T08:55:38;14.30;;;5.53;;
72127;SDS011;60000;51.030;7.024;2022-11-20T08:58:04;14.15;;;5.53;;
72127;SDS011;60000;51.030;7.024;2022-11-20T09:00:30;15.35;;;6.03;;
72127;SDS011;60000;51.030;7.024;2022-11-20T09:02:55;13.20;;;5.43;;
72127;SDS011;60000;51.030;7.024;2022-11-20T09:05:21;14.93;;;6.00;;
72127;SDS011;60000;51.030;7.024;2022-11-20T09:07:46;13.40;;;5.93;;
72127;SDS011;60000;51.030;7.024;2022-11-20T09:10:11;16.80;;;6.20;;
72127;SDS011;60000;51.030;7.024;2022-11-20T09:12:36;14.73;;;5.90;;
72127;SDS011;60000;51.030;7.024;2022-11-20T09:15:02;14.33;;;6.03;;
72127;SDS011;60000;51.030;7.024;2022-11-20T09:17:27;17.87;;;6.33;;
72127;SDS011;60000;51.030;7.024;2022-11-20T09:19:53;15.20;;;6.73;;
72127;SDS011;60000;51.030;7.024;2022-11-20T09:22:18;16.70;;;6.57;;
72127;SDS011;60000;51.030;7.024;2022-11-20T09:24:43;14.25;;;6.20;;
72127;SDS011;60000;51.030;7.024;2022-11-20T09:27:08;15.40;;;6.40;;
72127;SDS011;60000;51.030;7.024;2022-11-20T09:29:34;16.27;;;6.43;;
72127;SDS011;60000;51.030;7.024;2022-11-20T09:31:59;14.37;;;6.20;;
72127;SDS011;60000;51.030;7.024;2022-11-20T09:34:24;18.10;;;6.27;;
72127;SDS011;60000;51.030;7.024;2022-11-20T09:36:50;12.90;;;5.13;;
72127;SDS011;60000;51.030;7.024;2022-11-20T09:39:15;16.57;;;6.60;;
72127;SDS011;60000;51.030;7.024;2022-11-20T09:44:19;15.23;;;6.30;;
72127;SDS011;60000;51.030;7.024;2022-11-20T09:52:00;12.80;;;5.70;;
72127;SDS011;60000;51.030;7.024;2022-11-20T09:54:45;12.68;;;4.93;;
72127;SDS011;60000;51.030;7.024;2022-11-20T09:59:49;13.70;;;5.00;;
72127;SDS011;60000;51.030;7.024;2022-11-20T10:05:18;14.32;;;5.30;;
72127;SDS011;60000;51.030;7.024;2022-11-20T10:07:55;14.98;;;5.20;;
72127;SDS011;60000;51.030;7.024;2022-11-20T10:10:29;11.70;;;5.00;;
72127;SDS011;60000;51.030;7.024;2022-11-20T10:15:43;12.30;;;4.80;;
72127;SDS011;60000;51.030;7.024;2022-11-20T10:21:20;12.68;;;5.32;;
72127;SDS011;60000;51.030;7.024;2022-11-20T10:24:13;13.57;;;5.57;;
72127;SDS011;60000;51.030;7.024;2022-11-20T10:29:46;13.82;;;5.22;;
72127;SDS011;60000;51.030;7.024;2022-11-20T10:32:15;15.65;;;5.97;;
72127;SDS011;60000;51.030;7.024;2022-11-20T10:34:47;13.00;;;6.07;;
72127;SDS011;60000;51.030;7.024;2022-11-20T10:39:59;12.13;;;5.03;;
72127;SDS011;60000;51.030;7.024;2022-11-20T10:42:47;12.88;;;6.05;;
72127;SDS011;60000;51.030;7.024;2022-11-20T10:47:51;16.85;;;6.35;;
72127;SDS011;60000;51.030;7.024;2022-11-20T10:50:21;13.18;;;6.03;;
72127;SDS011;60000;51.030;7.024;2022-11-20T10:55:45;10.73;;;4.38;;
72127;SDS011;60000;51.030;7.024;2022-11-20T10:58:23;17.15;;;6.03;;
72127;SDS011;60000;51.030;7.024;2022-11-20T11:01:04;11.95;;;5.22;;
72127;SDS011;60000;51.030;7.024;2022-11-20T11:03:39;16.08;;;6.68;;
72127;SDS011;60000;51.030;7.024;2022-11-20T11:06:10;16.80;;;6.57;;
72127;SDS011;60000;51.030;7.024;2022-11-20T11:08:47;16.75;;;6.57;;
72127;SDS011;60000;51.030;7.024;2022-11-20T11:11:32;16.00;;;6.88;;
72127;SDS011;60000;51.030;7.024;2022-11-20T11:14:12;14.93;;;6.05;;
72127;SDS011;60000;51.030;7.024;2022-11-20T11:16:49;16.13;;;6.75;;
72127;SDS011;60000;51.030;7.024;2022-11-20T11:19:19;17.63;;;6.73;;
72127;SDS011;60000;51.030;7.024;2022-11-20T11:21:48;15.73;;;6.55;;
72127;SDS011;60000;51.030;7.024;2022-11-20T11:24:37;16.43;;;6.20;;
72127;SDS011;60000;51.030;7.024;2022-11-20T11:27:03;13.60;;;6.95;;
72127;SDS011;60000;51.030;7.024;2022-11-20T11:29:35;14.85;;;5.53;;
72127;SDS011;60000;51.030;7.024;2022-11-20T11:34:31;16.05;;;6.35;;
72127;SDS011;60000;51.030;7.024;2022-11-20T11:36:57;17.43;;;7.23;;
72127;SDS011;60000;51.030;7.024;2022-11-20T11:39:23;14.20;;;6.47;;
72127;SDS011;60000;51.030;7.024;2022-11-20T11:41:49;17.17;;;6.82;;
72127;SDS011;60000;51.030;7.024;2022-11-20T11:44:17;14.95;;;6.82;;
72127;SDS011;60000;51.030;7.024;2022-11-20T11:47:01;16.23;;;7.03;;
72127;SDS011;60000;51.030;7.024;2022-11-20T11:49:28;18.38;;;7.38;;
72127;SDS011;60000;51.030;7.024;2022-11-20T11:54:26;14.32;;;6.35;;
72127;SDS011;60000;51.030;7.024;2022-11-20T11:57:12;15.55;;;6.20;;
72127;SDS011;60000;51.030;7.024;2022-11-20T11:59:46;16.73;;;7.32;;
72127;SDS011;60000;51.030;7.024;2022-11-20T12:02:34;14.95;;;6.30;;
72127;SDS011;60000;51.030;7.024;2022-11-20T12:05:03;14.77;;;6.97;;
72127;SDS011;60000;51.030;7.024;2022-11-20T12:07:40;15.15;;;6.50;;
72127;SDS011;60000;51.030;7.024;2022-11-20T12:10:18;19.40;;;8.05;;
72127;SDS011;60000;51.030;7.024;2022-11-20T12:12:54;17.80;;;7.10;;
72127;SDS011;60000;51.030;7.024;2022-11-20T12:15:27;15.65;;;6.85;;
72127;SDS011;60000;51.030;7.024;2022-11-20T12:17:55;15.03;;;6.50;;
72127;SDS011;60000;51.030;7.024;2022-11-20T12:20:21;15.75;;;6.47;;
72127;SDS011;60000;51.030;7.024;2022-11-20T12:25:22;15.13;;;6.57;;
72127;SDS011;60000;51.030;7.024;2022-11-20T12:27:58;16.45;;;7.78;;
72127;SDS011;60000;51.030;7.024;2022-11-20T12:30:31;15.77;;;6.70;;
72127;SDS011;60000;51.030;7.024;2022-11-20T12:45:02;13.75;;;5.47;;
72127;SDS011;60000;51.030;7.024;2022-11-20T12:50:35;19.52;;;6.80;;
72127;SDS011;60000;51.030;7.024;2022-11-20T13:01:40;17.52;;;7.28;;
72127;SDS011;60000;51.030;7.024;2022-11-20T13:07:08;17.97;;;7.13;;
72127;SDS011;60000;51.030;7.024;2022-11-20T13:09:39;15.02;;;7.00;;
72127;SDS011;60000;51.030;7.024;2022-11-20T13:15:02;16.85;;;6.72;;
72127;SDS011;60000;51.030;7.024;2022-11-20T13:20:23;15.53;;;7.17;;
72127;SDS011;60000;51.030;7.024;2022-11-20T13:22:49;17.38;;;6.80;;
72127;SDS011;60000;51.030;7.024;2022-11-20T13:25:25;14.90;;;6.38;;
72127;SDS011;60000;51.030;7.024;2022-11-20T13:27:56;17.48;;;6.70;;
72127;SDS011;60000;51.030;7.024;2022-11-20T13:30:24;11.83;;;4.23;;
72127;SDS011;60000;51.030;7.024;2022-11-20T13:33:07;16.30;;;6.95;;
72127;SDS011;60000;51.030;7.024;2022-11-20T13:36:34;15.50;;;6.45;;
72127;SDS011;60000;51.030;7.024;2022-11-20T13:38:48;15.02;;;6.05;;
72127;SDS011;60000;51.030;7.024;2022-11-20T13:46:37;17.60;;;6.65;;
72127;SDS011;60000;51.030;7.024;2022-11-20T13:49:09;15.90;;;6.93;;
72127;SDS011;60000;51.030;7.024;2022-11-20T13:51:51;15.18;;;5.78;;
72127;SDS011;60000;51.030;7.024;2022-11-20T13:54:22;17.07;;;6.73;;
72127;SDS011;60000;51.030;7.024;2022-11-20T13:59:40;17.73;;;7.20;;
72127;SDS011;60000;51.030;7.024;2022-11-20T14:02:14;16.90;;;6.70;;
72127;SDS011;60000;51.030;7.024;2022-11-20T14:04:42;14.15;;;6.32;;
72127;SDS011;60000;51.030;7.024;2022-11-20T14:07:10;20.03;;;7.43;;
72127;SDS011;60000;51.030;7.024;2022-11-20T14:09:36;14.32;;;6.05;;
72127;SDS011;60000;51.030;7.024;2022-11-20T14:12:02;20.23;;;7.03;;
72127;SDS011;60000;51.030;7.024;2022-11-20T14:14:29;16.83;;;6.63;;
72127;SDS011;60000;51.030;7.024;2022-11-20T14:17:04;14.30;;;5.97;;
72127;SDS011;60000;51.030;7.024;2022-11-20T14:19:51;15.88;;;6.18;;
72127;SDS011;60000;51.030;7.024;2022-11-20T14:22:24;17.60;;;6.10;;
72127;SDS011;60000;51.030;7.024;2022-11-20T14:27:50;15.70;;;6.35;;
72127;SDS011;60000;51.030;7.024;2022-11-20T14:30:18;13.25;;;5.30;;
72127;SDS011;60000;51.030;7.024;2022-11-20T14:32:46;15.25;;;5.90;;
72127;SDS011;60000;51.030;7.024;2022-11-20T14:35:23;15.07;;;6.15;;
72127;SDS011;60000;51.030;7.024;2022-11-20T14:37:48;13.27;;;5.97;;
72127;SDS011;60000;51.030;7.024;2022-11-20T14:40:21;15.57;;;6.38;;
72127;SDS011;60000;51.030;7.024;2022-11-20T14:42:47;13.57;;;5.60;;
72127;SDS011;60000;51.030;7.024;2022-11-20T14:45:12;14.47;;;6.33;;
72127;SDS011;60000;51.030;7.024;2022-11-20T14:47:38;15.55;;;6.97;;
72127;SDS011;60000;51.030;7.024;2022-11-20T14:50:07;13.63;;;6.28;;
72127;SDS011;60000;51.030;7.024;2022-11-20T14:55:24;17.50;;;6.43;;
72127;SDS011;60000;51.030;7.024;2022-11-20T15:00:30;13.88;;;6.38;;
72127;SDS011;60000;51.030;7.024;2022-11-20T15:02:56;16.33;;;6.25;;
72127;SDS011;60000;51.030;7.024;2022-11-20T15:05:23;15.15;;;6.47;;
72127;SDS011;60000;51.030;7.024;2022-11-20T15:08:03;14.35;;;6.13;;
72127;SDS011;60000;51.030;7.024;2022-11-20T15:10:30;14.98;;;6.68;;
72127;SDS011;60000;51.030;7.024;2022-11-20T15:13:00;20.67;;;7.20;;
72127;SDS011;60000;51.030;7.024;2022-11-20T15:15:32;15.77;;;7.05;;
72127;SDS011;60000;51.030;7.024;2022-11-20T15:18:01;15.00;;;6.13;;
72127;SDS011;60000;51.030;7.024;2022-11-20T15:20:27;14.87;;;6.77;;
72127;SDS011;60000;51.030;7.024;2022-11-20T15:22:55;16.85;;;6.38;;
72127;SDS011;60000;51.030;7.024;2022-11-20T15:25:20;20.27;;;8.03;;
72127;SDS011;60000;51.030;7.024;2022-11-20T15:27:46;17.33;;;6.60;;
72127;SDS011;60000;51.030;7.024;2022-11-20T15:30:17;17.05;;;6.43;;
72127;SDS011;60000;51.030;7.024;2022-11-20T15:32:44;14.90;;;6.50;;
72127;SDS011;60000;51.030;7.024;2022-11-20T15:35:10;15.57;;;7.10;;
72127;SDS011;60000;51.030;7.024;2022-11-20T15:37:36;17.70;;;7.47;;
72127;SDS011;60000;51.030;7.024;2022-11-20T15:40:02;18.00;;;8.90;;
72127;SDS011;60000;51.030;7.024;2022-11-20T15:42:28;20.15;;;10.05;;
72127;SDS011;60000;51.030;7.024;2022-11-20T15:44:53;16.23;;;7.10;;
72127;SDS011;60000;51.030;7.024;2022-11-20T15:47:19;16.30;;;5.97;;
72127;SDS011;60000;51.030;7.024;2022-11-20T15:49:50;15.68;;;5.80;;
72127;SDS011;60000;51.030;7.024;2022-11-20T15:52:15;16.90;;;6.93;;
72127;SDS011;60000;51.030;7.024;2022-11-20T15:54:41;18.98;;;6.50;;
72127;SDS011;60000;51.030;7.024;2022-11-20T15:57:06;15.63;;;7.03;;
72127;SDS011;60000;51.030;7.024;2022-11-20T15:59:32;16.33;;;7.00;;
72127;SDS011;60000;51.030;7.024;2022-11-20T16:01:57;16.47;;;6.83;;
72127;SDS011;60000;51.030;7.024;2022-11-20T16:04:22;17.27;;;5.83;;
72127;SDS011;60000;51.030;7.024;2022-11-20T16:06:48;15.65;;;6.38;;
72127;SDS011;60000;51.030;7.024;2022-11-20T16:09:13;16.88;;;6.80;;
72127;SDS011;60000;51.030;7.024;2022-11-20T16:11:38;18.07;;;6.17;;
72127;SDS011;60000;51.030;7.024;2022-11-20T16:14:04;14.70;;;5.70;;
72127;SDS011;60000;51.030;7.024;2022-11-20T16:16:49;17.73;;;5.73;;
72127;SDS011;60000;51.030;7.024;2022-11-20T16:19:14;19.52;;;6.15;;